sensor_id;sensor_type;location;lat;lon;timestamp;P1;durP1;ratioP1;P2;durP2;ratioP2
17832;SDS011;9041;49.718;21.798;2023-07-20T00:00:55;10.85;;;3.50;;
17832;SDS011;9041;49.718;21.798;2023-07-20T00:03:21;5.28;;;3.35;;
17832;SDS011;9041;49.718;21.798;2023-07-20T00:05:51;4.70;;;3.30;;
17832;SDS011;9041;49.718;21.798;2023-07-20T00:08:18;5.68;;;3.08;;
17832;SDS011;9041;49.718;21.798;2023-07-20T00:10:45;6.47;;;3.90;;
17832;SDS011;9041;49.718;21.798;2023-07-20T00:13:11;6.18;;;3.22;;
17832;SDS011;9041;49.718;21.798;2023-07-20T00:15:38;4.85;;;3.40;;
17832;SDS011;9041;49.718;21.798;2023-07-20T00:18:05;6.22;;;3.10;;
17832;SDS011;9041;49.718;21.798;2023-07-20T00:20:31;6.57;;;3.58;;
17832;SDS011;9041;49.718;21.798;2023-07-20T00:22:59;5.47;;;3.58;;
17832;SDS011;9041;49.718;21.798;2023-07-20T00:25:26;6.43;;;3.42;;
17832;SDS011;9041;49.718;21.798;2023-07-20T00:27:53;5.50;;;3.28;;
17832;SDS011;9041;49.718;21.798;2023-07-20T00:30:19;8.77;;;2.90;;
17832;SDS011;9041;49.718;21.798;2023-07-20T00:32:46;3.85;;;2.70;;
17832;SDS011;9041;49.718;21.798;2023-07-20T00:35:12;10.27;;;4.35;;
17832;SDS011;9041;49.718;21.798;2023-07-20T00:37:40;7.60;;;3.63;;
17832;SDS011;9041;49.718;21.798;2023-07-20T00:40:08;7.70;;;3.63;;
17832;SDS011;9041;49.718;21.798;2023-07-20T00:42:35;8.27;;;3.25;;
17832;SDS011;9041;49.718;21.798;2023-07-20T00:45:02;11.65;;;3.60;;
17832;SDS011;9041;49.718;21.798;2023-07-20T00:47:29;8.18;;;3.20;;
17832;SDS011;9041;49.718;21.798;2023-07-20T00:49:55;7.35;;;3.42;;
17832;SDS011;9041;49.718;21.798;2023-07-20T00:52:22;6.78;;;3.67;;
17832;SDS011;9041;49.718;21.798;2023-07-20T00:54:49;9.27;;;3.40;;
17832;SDS011;9041;49.718;21.798;2023-07-20T00:57:18;6.40;;;3.38;;
17832;SDS011;9041;49.718;21.798;2023-07-20T00:59:45;10.15;;;3.55;;
17832;SDS011;9041;49.718;21.798;2023-07-20T01:02:12;9.50;;;3.22;;
17832;SDS011;9041;49.718;21.798;2023-07-20T01:04:38;7.68;;;3.22;;
17832;SDS011;9041;49.718;21.798;2023-07-20T01:07:08;7.68;;;3.58;;
17832;SDS011;9041;49.718;21.798;2023-07-20T01:09:39;9.63;;;3.20;;
17832;SDS011;9041;49.718;21.798;2023-07-20T01:12:10;8.38;;;3.50;;
17832;SDS011;9041;49.718;21.798;2023-07-20T01:14:40;13.23;;;3.70;;
17832;SDS011;9041;49.718;21.798;2023-07-20T01:17:07;10.07;;;3.80;;
17832;SDS011;9041;49.718;21.798;2023-07-20T01:19:35;12.00;;;3.58;;
17832;SDS011;9041;49.718;21.798;2023-07-20T01:22:03;12.38;;;4.03;;
17832;SDS011;9041;49.718;21.798;2023-07-20T01:24:42;8.15;;;3.72;;
17832;SDS011;9041;49.718;21.798;2023-07-20T01:27:20;8.30;;;3.58;;
17832;SDS011;9041;49.718;21.798;2023-07-20T01:30:06;6.93;;;3.53;;
17832;SDS011;9041;49.718;21.798;2023-07-20T01:32:41;8.40;;;3.60;;
17832;SDS011;9041;49.718;21.798;2023-07-20T01:35:09;5.82;;;3.50;;
17832;SDS011;9041;49.718;21.798;2023-07-20T01:37:39;8.45;;;3.45;;
17832;SDS011;9041;49.718;21.798;2023-07-20T01:40:08;8.00;;;3.10;;
17832;SDS011;9041;49.718;21.798;2023-07-20T01:42:35;9.98;;;3.83;;
17832;SDS011;9041;49.718;21.798;2023-07-20T01:45:03;7.45;;;3.35;;
17832;SDS011;9041;49.718;21.798;2023-07-20T01:47:30;5.88;;;3.50;;
17832;SDS011;9041;49.718;21.798;2023-07-20T01:49:58;8.40;;;3.42;;
17832;SDS011;9041;49.718;21.798;2023-07-20T01:52:24;6.40;;;3.58;;
17832;SDS011;9041;49.718;21.798;2023-07-20T01:54:51;7.20;;;3.60;;
17832;SDS011;9041;49.718;21.798;2023-07-20T01:57:17;6.55;;;3.60;;
17832;SDS011;9041;49.718;21.798;2023-07-20T01:59:44;8.85;;;3.55;;
17832;SDS011;9041;49.718;21.798;2023-07-20T02:02:11;14.63;;;3.83;;
17832;SDS011;9041;49.718;21.798;2023-07-20T02:04:37;8.23;;;3.78;;
17832;SDS011;9041;49.718;21.798;2023-07-20T02:07:06;11.02;;;3.70;;
17832;SDS011;9041;49.718;21.798;2023-07-20T02:09:32;9.25;;;3.50;;
17832;SDS011;9041;49.718;21.798;2023-07-20T02:11:59;7.03;;;3.80;;
17832;SDS011;9041;49.718;21.798;2023-07-20T02:14:26;10.07;;;3.20;;
17832;SDS011;9041;49.718;21.798;2023-07-20T02:16:52;5.85;;;3.35;;
17832;SDS011;9041;49.718;21.798;2023-07-20T02:19:24;6.40;;;3.00;;
17832;SDS011;9041;49.718;21.798;2023-07-20T02:21:50;5.97;;;3.67;;
17832;SDS011;9041;49.718;21.798;2023-07-20T02:24:19;4.78;;;3.22;;
17832;SDS011;9041;49.718;21.798;2023-07-20T02:26:45;5.72;;;3.60;;
17832;SDS011;9041;49.718;21.798;2023-07-20T02:29:12;8.57;;;3.25;;
17832;SDS011;9041;49.718;21.798;2023-07-20T02:31:39;10.88;;;3.40;;
17832;SDS011;9041;49.718;21.798;2023-07-20T02:34:06;6.32;;;3.33;;
17832;SDS011;9041;49.718;21.798;2023-07-20T02:36:33;7.65;;;3.53;;
17832;SDS011;9041;49.718;21.798;2023-07-20T02:39:00;8.75;;;3.45;;
17832;SDS011;9041;49.718;21.798;2023-07-20T02:41:30;8.68;;;3.38;;
17832;SDS011;9041;49.718;21.798;2023-07-20T02:43:56;10.80;;;3.75;;
17832;SDS011;9041;49.718;21.798;2023-07-20T02:46:23;6.05;;;3.75;;
17832;SDS011;9041;49.718;21.798;2023-07-20T02:48:50;10.55;;;3.90;;
17832;SDS011;9041;49.718;21.798;2023-07-20T02:51:17;10.15;;;4.03;;
17832;SDS011;9041;49.718;21.798;2023-07-20T02:53:43;8.68;;;3.40;;
17832;SDS011;9041;49.718;21.798;2023-07-20T02:56:10;5.40;;;3.33;;
17832;SDS011;9041;49.718;21.798;2023-07-20T02:58:39;9.70;;;3.90;;
17832;SDS011;9041;49.718;21.798;2023-07-20T03:01:08;4.88;;;3.40;;
17832;SDS011;9041;49.718;21.798;2023-07-20T03:03:35;5.72;;;3.35;;
17832;SDS011;9041;49.718;21.798;2023-07-20T03:06:04;7.93;;;3.55;;
17832;SDS011;9041;49.718;21.798;2023-07-20T03:08:30;8.00;;;3.78;;
17832;SDS011;9041;49.718;21.798;2023-07-20T03:10:57;9.75;;;3.67;;
17832;SDS011;9041;49.718;21.798;2023-07-20T03:13:24;6.25;;;3.42;;
17832;SDS011;9041;49.718;21.798;2023-07-20T03:15:53;7.90;;;3.72;;
17832;SDS011;9041;49.718;21.798;2023-07-20T03:18:27;7.07;;;4.30;;
17832;SDS011;9041;49.718;21.798;2023-07-20T03:20:53;7.47;;;3.88;;
17832;SDS011;9041;49.718;21.798;2023-07-20T03:23:20;7.88;;;3.55;;
17832;SDS011;9041;49.718;21.798;2023-07-20T03:25:46;8.90;;;3.67;;
17832;SDS011;9041;49.718;21.798;2023-07-20T03:28:13;10.10;;;3.85;;
17832;SDS011;9041;49.718;21.798;2023-07-20T03:30:41;6.30;;;4.05;;
17832;SDS011;9041;49.718;21.798;2023-07-20T03:33:09;8.52;;;4.55;;
17832;SDS011;9041;49.718;21.798;2023-07-20T03:35:35;12.32;;;3.78;;
17832;SDS011;9041;49.718;21.798;2023-07-20T03:38:02;9.70;;;4.68;;
17832;SDS011;9041;49.718;21.798;2023-07-20T03:40:29;8.93;;;4.60;;
17832;SDS011;9041;49.718;21.798;2023-07-20T03:42:56;9.20;;;4.25;;
17832;SDS011;9041;49.718;21.798;2023-07-20T03:45:22;9.02;;;4.05;;
17832;SDS011;9041;49.718;21.798;2023-07-20T03:47:49;8.13;;;4.10;;
17832;SDS011;9041;49.718;21.798;2023-07-20T03:50:17;10.13;;;4.30;;
17832;SDS011;9041;49.718;21.798;2023-07-20T03:52:44;8.35;;;4.22;;
17832;SDS011;9041;49.718;21.798;2023-07-20T03:55:10;7.22;;;4.18;;
17832;SDS011;9041;49.718;21.798;2023-07-20T03:57:37;11.10;;;5.18;;
17832;SDS011;9041;49.718;21.798;2023-07-20T04:00:04;10.05;;;4.82;;
17832;SDS011;9041;49.718;21.798;2023-07-20T04:02:33;11.10;;;5.07;;
17832;SDS011;9041;49.718;21.798;2023-07-20T04:04:59;11.95;;;4.72;;
17832;SDS011;9041;49.718;21.798;2023-07-20T04:07:27;11.80;;;4.80;;
17832;SDS011;9041;49.718;21.798;2023-07-20T04:09:54;10.63;;;4.93;;
17832;SDS011;9041;49.718;21.798;2023-07-20T04:12:20;10.73;;;4.75;;
17832;SDS011;9041;49.718;21.798;2023-07-20T04:14:47;7.05;;;4.38;;
17832;SDS011;9041;49.718;21.798;2023-07-20T04:17:13;14.63;;;4.90;;
17832;SDS011;9041;49.718;21.798;2023-07-20T04:19:40;9.73;;;4.82;;
17832;SDS011;9041;49.718;21.798;2023-07-20T04:22:07;12.50;;;5.05;;
17832;SDS011;9041;49.718;21.798;2023-07-20T04:24:35;16.40;;;4.72;;
17832;SDS011;9041;49.718;21.798;2023-07-20T04:27:02;8.32;;;4.63;;
17832;SDS011;9041;49.718;21.798;2023-07-20T04:29:29;22.02;;;5.32;;
17832;SDS011;9041;49.718;21.798;2023-07-20T05:59:20;7.82;;;4.90;;
17832;SDS011;9041;49.718;21.798;2023-07-20T06:01:48;9.95;;;5.45;;
17832;SDS011;9041;49.718;21.798;2023-07-20T06:04:15;16.10;;;5.90;;
17832;SDS011;9041;49.718;21.798;2023-07-20T06:06:42;11.90;;;5.20;;
17832;SDS011;9041;49.718;21.798;2023-07-20T06:09:09;13.30;;;5.45;;
17832;SDS011;9041;49.718;21.798;2023-07-20T06:11:37;10.63;;;5.22;;
17832;SDS011;9041;49.718;21.798;2023-07-20T06:14:05;14.25;;;6.60;;
17832;SDS011;9041;49.718;21.798;2023-07-20T06:16:32;9.32;;;5.43;;
17832;SDS011;9041;49.718;21.798;2023-07-20T06:18:59;10.75;;;5.85;;
17832;SDS011;9041;49.718;21.798;2023-07-20T06:21:26;12.43;;;6.13;;
17832;SDS011;9041;49.718;21.798;2023-07-20T06:23:52;8.77;;;6.15;;
17832;SDS011;9041;49.718;21.798;2023-07-20T06:26:19;17.65;;;5.50;;
17832;SDS011;9041;49.718;21.798;2023-07-20T06:28:46;13.73;;;5.50;;
17832;SDS011;9041;49.718;21.798;2023-07-20T06:31:14;10.95;;;5.78;;
17832;SDS011;9041;49.718;21.798;2023-07-20T06:33:41;14.13;;;6.32;;
17832;SDS011;9041;49.718;21.798;2023-07-20T06:36:07;9.80;;;5.63;;
17832;SDS011;9041;49.718;21.798;2023-07-20T06:38:36;19.55;;;5.82;;
17832;SDS011;9041;49.718;21.798;2023-07-20T06:41:02;12.50;;;6.45;;
17832;SDS011;9041;49.718;21.798;2023-07-20T06:43:29;16.42;;;6.57;;
17832;SDS011;9041;49.718;21.798;2023-07-20T06:45:56;12.32;;;5.78;;
17832;SDS011;9041;49.718;21.798;2023-07-20T06:48:24;16.10;;;6.25;;
17832;SDS011;9041;49.718;21.798;2023-07-20T06:50:50;9.75;;;5.55;;
17832;SDS011;9041;49.718;21.798;2023-07-20T06:53:17;11.90;;;5.63;;
17832;SDS011;9041;49.718;21.798;2023-07-20T06:55:44;14.63;;;5.88;;
17832;SDS011;9041;49.718;21.798;2023-07-20T06:58:10;13.13;;;6.05;;
17832;SDS011;9041;49.718;21.798;2023-07-20T07:00:37;12.48;;;5.88;;
17832;SDS011;9041;49.718;21.798;2023-07-20T07:03:04;9.88;;;5.93;;
17832;SDS011;9041;49.718;21.798;2023-07-20T07:05:34;13.93;;;5.68;;
17832;SDS011;9041;49.718;21.798;2023-07-20T07:08:02;11.73;;;5.60;;
17832;SDS011;9041;49.718;21.798;2023-07-20T07:10:29;16.85;;;6.35;;
17832;SDS011;9041;49.718;21.798;2023-07-20T07:12:55;10.13;;;5.97;;
17832;SDS011;9041;49.718;21.798;2023-07-20T07:15:22;12.35;;;6.63;;
17832;SDS011;9041;49.718;21.798;2023-07-20T07:17:50;14.38;;;6.88;;
17832;SDS011;9041;49.718;21.798;2023-07-20T07:20:18;11.43;;;5.63;;
17832;SDS011;9041;49.718;21.798;2023-07-20T07:22:46;12.75;;;5.80;;
17832;SDS011;9041;49.718;21.798;2023-07-20T07:25:13;12.38;;;5.38;;
17832;SDS011;9041;49.718;21.798;2023-07-20T07:27:40;11.60;;;5.30;;
17832;SDS011;9041;49.718;21.798;2023-07-20T07:30:07;13.43;;;5.70;;
17832;SDS011;9041;49.718;21.798;2023-07-20T07:32:35;17.63;;;5.35;;
17832;SDS011;9041;49.718;21.798;2023-07-20T07:35:02;13.57;;;5.20;;
17832;SDS011;9041;49.718;21.798;2023-07-20T07:37:29;13.43;;;4.82;;
17832;SDS011;9041;49.718;21.798;2023-07-20T07:39:57;11.20;;;4.90;;
17832;SDS011;9041;49.718;21.798;2023-07-20T07:42:23;6.90;;;4.70;;
17832;SDS011;9041;49.718;21.798;2023-07-20T07:44:50;16.10;;;5.38;;
17832;SDS011;9041;49.718;21.798;2023-07-20T07:47:17;15.45;;;6.22;;
17832;SDS011;9041;49.718;21.798;2023-07-20T07:49:43;9.93;;;5.70;;
17832;SDS011;9041;49.718;21.798;2023-07-20T07:52:10;14.55;;;6.05;;
17832;SDS011;9041;49.718;21.798;2023-07-20T07:54:37;24.50;;;6.20;;
17832;SDS011;9041;49.718;21.798;2023-07-20T07:57:05;9.02;;;4.97;;
17832;SDS011;9041;49.718;21.798;2023-07-20T07:59:32;12.50;;;5.40;;
17832;SDS011;9041;49.718;21.798;2023-07-20T08:02:01;10.85;;;6.15;;
17832;SDS011;9041;49.718;21.798;2023-07-20T08:04:29;11.30;;;5.63;;
17832;SDS011;9041;49.718;21.798;2023-07-20T08:06:56;11.40;;;5.20;;
17832;SDS011;9041;49.718;21.798;2023-07-20T08:09:24;17.27;;;5.90;;
17832;SDS011;9041;49.718;21.798;2023-07-20T08:11:50;18.15;;;6.00;;
17832;SDS011;9041;49.718;21.798;2023-07-20T08:14:18;15.85;;;6.47;;
17832;SDS011;9041;49.718;21.798;2023-07-20T08:16:45;10.27;;;5.82;;
17832;SDS011;9041;49.718;21.798;2023-07-20T08:19:12;14.43;;;5.93;;
17832;SDS011;9041;49.718;21.798;2023-07-20T08:21:39;11.50;;;6.90;;
17832;SDS011;9041;49.718;21.798;2023-07-20T08:24:06;13.75;;;6.18;;
17832;SDS011;9041;49.718;21.798;2023-07-20T08:26:33;14.70;;;5.82;;
17832;SDS011;9041;49.718;21.798;2023-07-20T08:28:59;21.05;;;6.15;;
17832;SDS011;9041;49.718;21.798;2023-07-20T08:31:27;12.50;;;6.20;;
17832;SDS011;9041;49.718;21.798;2023-07-20T08:33:54;23.42;;;6.25;;
17832;SDS011;9041;49.718;21.798;2023-07-20T08:36:22;14.68;;;6.25;;
17832;SDS011;9041;49.718;21.798;2023-07-20T08:38:49;12.00;;;5.65;;
17832;SDS011;9041;49.718;21.798;2023-07-20T08:41:16;14.00;;;6.05;;
17832;SDS011;9041;49.718;21.798;2023-07-20T08:43:42;15.27;;;5.55;;
17832;SDS011;9041;49.718;21.798;2023-07-20T08:46:10;12.18;;;5.40;;
17832;SDS011;9041;49.718;21.798;2023-07-20T08:48:39;9.80;;;5.20;;
17832;SDS011;9041;49.718;21.798;2023-07-20T08:51:06;13.63;;;5.10;;
17832;SDS011;9041;49.718;21.798;2023-07-20T08:53:32;10.45;;;4.80;;
17832;SDS011;9041;49.718;21.798;2023-07-20T08:55:59;10.77;;;4.68;;
17832;SDS011;9041;49.718;21.798;2023-07-20T08:58:26;12.60;;;5.30;;
17832;SDS011;9041;49.718;21.798;2023-07-20T09:00:54;13.30;;;4.60;;
17832;SDS011;9041;49.718;21.798;2023-07-20T09:03:20;6.38;;;4.03;;
17832;SDS011;9041;49.718;21.798;2023-07-20T09:05:48;8.30;;;4.38;;
17832;SDS011;9041;49.718;21.798;2023-07-20T09:08:16;9.02;;;4.75;;
17832;SDS011;9041;49.718;21.798;2023-07-20T09:10:43;8.98;;;4.38;;
17832;SDS011;9041;49.718;21.798;2023-07-20T09:13:09;7.75;;;5.32;;
17832;SDS011;9041;49.718;21.798;2023-07-20T09:15:36;7.85;;;4.80;;
17832;SDS011;9041;49.718;21.798;2023-07-20T09:18:02;9.23;;;4.60;;
17832;SDS011;9041;49.718;21.798;2023-07-20T09:23:12;9.00;;;4.35;;
17832;SDS011;9041;49.718;21.798;2023-07-20T09:25:38;8.80;;;4.03;;
17832;SDS011;9041;49.718;21.798;2023-07-20T09:28:06;5.65;;;3.35;;
17832;SDS011;9041;49.718;21.798;2023-07-20T09:30:33;6.35;;;2.78;;
17832;SDS011;9041;49.718;21.798;2023-07-20T09:33:00;5.75;;;2.92;;
17832;SDS011;9041;49.718;21.798;2023-07-20T09:35:28;5.38;;;2.83;;
17832;SDS011;9041;49.718;21.798;2023-07-20T09:38:00;7.38;;;3.50;;
17832;SDS011;9041;49.718;21.798;2023-07-20T09:40:37;6.18;;;3.38;;
17832;SDS011;9041;49.718;21.798;2023-07-20T09:43:07;6.35;;;3.15;;
17832;SDS011;9041;49.718;21.798;2023-07-20T09:45:34;5.47;;;2.65;;
17832;SDS011;9041;49.718;21.798;2023-07-20T09:48:04;6.35;;;2.97;;
17832;SDS011;9041;49.718;21.798;2023-07-20T09:50:32;4.90;;;3.30;;
17832;SDS011;9041;49.718;21.798;2023-07-20T09:52:58;8.23;;;2.90;;
17832;SDS011;9041;49.718;21.798;2023-07-20T09:55:27;4.70;;;2.78;;
17832;SDS011;9041;49.718;21.798;2023-07-20T09:57:57;5.97;;;2.60;;
17832;SDS011;9041;49.718;21.798;2023-07-20T10:00:23;217.80;;;10.50;;
17832;SDS011;9041;49.718;21.798;2023-07-20T10:02:51;81.72;;;6.00;;
17832;SDS011;9041;49.718;21.798;2023-07-20T10:05:18;27.90;;;3.40;;
17832;SDS011;9041;49.718;21.798;2023-07-20T10:07:47;6.45;;;2.42;;
17832;SDS011;9041;49.718;21.798;2023-07-20T10:10:15;11.02;;;2.72;;
17832;SDS011;9041;49.718;21.798;2023-07-20T10:12:42;7.38;;;2.63;;
17832;SDS011;9041;49.718;21.798;2023-07-20T10:15:14;139.00;;;7.70;;
17832;SDS011;9041;49.718;21.798;2023-07-20T10:17:45;25.10;;;3.78;;
17832;SDS011;9041;49.718;21.798;2023-07-20T10:20:15;26.02;;;3.22;;
17832;SDS011;9041;49.718;21.798;2023-07-20T10:22:43;26.77;;;3.22;;
17832;SDS011;9041;49.718;21.798;2023-07-20T10:25:11;12.90;;;3.60;;
17832;SDS011;9041;49.718;21.798;2023-07-20T10:27:39;44.50;;;3.95;;
17832;SDS011;9041;49.718;21.798;2023-07-20T10:30:06;7.53;;;2.53;;
17832;SDS011;9041;49.718;21.798;2023-07-20T10:32:35;5.40;;;2.53;;
17832;SDS011;9041;49.718;21.798;2023-07-20T10:35:06;10.23;;;2.85;;
17832;SDS011;9041;49.718;21.798;2023-07-20T10:37:51;14.50;;;3.40;;
17832;SDS011;9041;49.718;21.798;2023-07-20T10:40:28;6.50;;;2.65;;
17832;SDS011;9041;49.718;21.798;2023-07-20T10:42:57;4.47;;;2.60;;
17832;SDS011;9041;49.718;21.798;2023-07-20T10:45:34;4.53;;;2.45;;
17832;SDS011;9041;49.718;21.798;2023-07-20T10:48:21;4.50;;;2.40;;
17832;SDS011;9041;49.718;21.798;2023-07-20T10:53:38;5.75;;;2.90;;
17832;SDS011;9041;49.718;21.798;2023-07-20T10:56:08;4.97;;;2.75;;
17832;SDS011;9041;49.718;21.798;2023-07-20T10:58:38;5.97;;;2.35;;
17832;SDS011;9041;49.718;21.798;2023-07-20T11:01:06;3.30;;;2.60;;
17832;SDS011;9041;49.718;21.798;2023-07-20T11:03:37;4.38;;;2.25;;
17832;SDS011;9041;49.718;21.798;2023-07-20T11:09:07;5.50;;;2.50;;
17832;SDS011;9041;49.718;21.798;2023-07-20T11:11:36;6.55;;;2.90;;
17832;SDS011;9041;49.718;21.798;2023-07-20T11:14:04;6.65;;;2.55;;
17832;SDS011;9041;49.718;21.798;2023-07-20T11:16:32;5.57;;;2.90;;
17832;SDS011;9041;49.718;21.798;2023-07-20T11:19:01;2.95;;;2.28;;
17832;SDS011;9041;49.718;21.798;2023-07-20T11:21:29;3.72;;;2.30;;
17832;SDS011;9041;49.718;21.798;2023-07-20T11:23:55;4.70;;;2.50;;
17832;SDS011;9041;49.718;21.798;2023-07-20T11:26:22;11.00;;;2.63;;
17832;SDS011;9041;49.718;21.798;2023-07-20T11:28:49;4.82;;;2.85;;
17832;SDS011;9041;49.718;21.798;2023-07-20T11:31:17;5.28;;;3.30;;
17832;SDS011;9041;49.718;21.798;2023-07-20T11:33:44;4.70;;;2.63;;
17832;SDS011;9041;49.718;21.798;2023-07-20T11:36:12;5.78;;;3.15;;
17832;SDS011;9041;49.718;21.798;2023-07-20T11:38:40;5.43;;;2.70;;
17832;SDS011;9041;49.718;21.798;2023-07-20T11:41:08;8.20;;;2.83;;
17832;SDS011;9041;49.718;21.798;2023-07-20T11:43:34;4.68;;;2.50;;
17832;SDS011;9041;49.718;21.798;2023-07-20T11:46:03;6.50;;;3.10;;
17832;SDS011;9041;49.718;21.798;2023-07-20T11:48:30;5.82;;;2.67;;
17832;SDS011;9041;49.718;21.798;2023-07-20T11:50:57;8.88;;;2.30;;
17832;SDS011;9041;49.718;21.798;2023-07-20T11:53:26;2.97;;;2.00;;
17832;SDS011;9041;49.718;21.798;2023-07-20T11:55:52;3.33;;;2.05;;
17832;SDS011;9041;49.718;21.798;2023-07-20T11:58:20;4.22;;;2.45;;
17832;SDS011;9041;49.718;21.798;2023-07-20T12:00:47;3.17;;;2.22;;
17832;SDS011;9041;49.718;21.798;2023-07-20T12:03:17;2.90;;;1.90;;
17832;SDS011;9041;49.718;21.798;2023-07-20T12:05:44;2.78;;;1.98;;
17832;SDS011;9041;49.718;21.798;2023-07-20T12:08:11;2.85;;;2.10;;
17832;SDS011;9041;49.718;21.798;2023-07-20T12:10:40;2.83;;;2.13;;
17832;SDS011;9041;49.718;21.798;2023-07-20T12:13:09;4.90;;;2.10;;
17832;SDS011;9041;49.718;21.798;2023-07-20T12:15:36;3.30;;;2.53;;
17832;SDS011;9041;49.718;21.798;2023-07-20T12:18:04;5.00;;;2.30;;
17832;SDS011;9041;49.718;21.798;2023-07-20T12:20:32;4.90;;;2.47;;
17832;SDS011;9041;49.718;21.798;2023-07-20T12:23:00;4.03;;;2.50;;
17832;SDS011;9041;49.718;21.798;2023-07-20T12:25:36;3.80;;;2.30;;
17832;SDS011;9041;49.718;21.798;2023-07-20T12:28:06;4.20;;;2.20;;
17832;SDS011;9041;49.718;21.798;2023-07-20T12:30:33;4.80;;;2.10;;
17832;SDS011;9041;49.718;21.798;2023-07-20T12:33:01;3.55;;;2.08;;
17832;SDS011;9041;49.718;21.798;2023-07-20T12:35:29;3.08;;;2.20;;
17832;SDS011;9041;49.718;21.798;2023-07-20T12:37:56;4.03;;;2.30;;
17832;SDS011;9041;49.718;21.798;2023-07-20T12:40:22;4.63;;;1.80;;
17832;SDS011;9041;49.718;21.798;2023-07-20T12:42:49;3.47;;;2.20;;
17832;SDS011;9041;49.718;21.798;2023-07-20T12:45:17;2.92;;;2.05;;
17832;SDS011;9041;49.718;21.798;2023-07-20T12:47:44;4.32;;;1.95;;
17832;SDS011;9041;49.718;21.798;2023-07-20T12:50:10;4.38;;;2.30;;
17832;SDS011;9041;49.718;21.798;2023-07-20T12:52:38;3.83;;;2.10;;
17832;SDS011;9041;49.718;21.798;2023-07-20T12:55:06;3.58;;;2.20;;
17832;SDS011;9041;49.718;21.798;2023-07-20T12:57:33;4.40;;;2.13;;
17832;SDS011;9041;49.718;21.798;2023-07-20T13:00:00;4.07;;;2.10;;
17832;SDS011;9041;49.718;21.798;2023-07-20T13:02:29;34.55;;;3.92;;
17832;SDS011;9041;49.718;21.798;2023-07-20T13:04:56;28.73;;;3.08;;
17832;SDS011;9041;49.718;21.798;2023-07-20T13:07:29;24.80;;;3.13;;
17832;SDS011;9041;49.718;21.798;2023-07-20T13:09:55;30.95;;;4.65;;
17832;SDS011;9041;49.718;21.798;2023-07-20T13:12:22;28.20;;;3.70;;
17832;SDS011;9041;49.718;21.798;2023-07-20T13:14:49;4.57;;;2.13;;
17832;SDS011;9041;49.718;21.798;2023-07-20T13:17:16;8.23;;;2.40;;
17832;SDS011;9041;49.718;21.798;2023-07-20T13:19:44;6.15;;;2.15;;
17832;SDS011;9041;49.718;21.798;2023-07-20T13:22:11;4.47;;;2.38;;
17832;SDS011;9041;49.718;21.798;2023-07-20T13:24:39;6.25;;;2.70;;
17832;SDS011;9041;49.718;21.798;2023-07-20T13:27:06;4.35;;;2.35;;
17832;SDS011;9041;49.718;21.798;2023-07-20T13:29:33;6.43;;;2.25;;
17832;SDS011;9041;49.718;21.798;2023-07-20T13:32:00;3.97;;;2.30;;
17832;SDS011;9041;49.718;21.798;2023-07-20T13:34:28;4.28;;;2.47;;
17832;SDS011;9041;49.718;21.798;2023-07-20T13:36:56;4.78;;;2.55;;
17832;SDS011;9041;49.718;21.798;2023-07-20T13:39:23;7.88;;;2.33;;
17832;SDS011;9041;49.718;21.798;2023-07-20T13:41:52;7.88;;;2.65;;
17832;SDS011;9041;49.718;21.798;2023-07-20T13:44:18;4.32;;;2.47;;
17832;SDS011;9041;49.718;21.798;2023-07-20T13:46:45;4.38;;;2.38;;
17832;SDS011;9041;49.718;21.798;2023-07-20T13:49:12;8.70;;;2.30;;
17832;SDS011;9041;49.718;21.798;2023-07-20T13:51:39;3.55;;;2.63;;
17832;SDS011;9041;49.718;21.798;2023-07-20T13:54:07;4.72;;;2.58;;
17832;SDS011;9041;49.718;21.798;2023-07-20T13:56:35;4.75;;;2.67;;
17832;SDS011;9041;49.718;21.798;2023-07-20T13:59:01;4.43;;;2.33;;
17832;SDS011;9041;49.718;21.798;2023-07-20T14:01:28;6.45;;;2.85;;
17832;SDS011;9041;49.718;21.798;2023-07-20T14:03:56;3.60;;;2.72;;
17832;SDS011;9041;49.718;21.798;2023-07-20T14:06:23;6.88;;;2.80;;
17832;SDS011;9041;49.718;21.798;2023-07-20T14:08:49;5.63;;;2.65;;
17832;SDS011;9041;49.718;21.798;2023-07-20T14:11:19;7.53;;;2.78;;
17832;SDS011;9041;49.718;21.798;2023-07-20T14:13:46;3.75;;;2.85;;
17832;SDS011;9041;49.718;21.798;2023-07-20T14:16:12;6.03;;;3.00;;
17832;SDS011;9041;49.718;21.798;2023-07-20T14:18:39;7.10;;;2.88;;
17832;SDS011;9041;49.718;21.798;2023-07-20T14:21:06;4.53;;;2.47;;
17832;SDS011;9041;49.718;21.798;2023-07-20T14:23:33;9.05;;;2.95;;
17832;SDS011;9041;49.718;21.798;2023-07-20T14:26:01;8.40;;;2.53;;
17832;SDS011;9041;49.718;21.798;2023-07-20T14:28:31;5.78;;;2.63;;
17832;SDS011;9041;49.718;21.798;2023-07-20T14:30:58;7.20;;;2.58;;
17832;SDS011;9041;49.718;21.798;2023-07-20T14:33:24;8.02;;;2.58;;
17832;SDS011;9041;49.718;21.798;2023-07-20T14:35:51;3.58;;;2.47;;
17832;SDS011;9041;49.718;21.798;2023-07-20T14:38:18;4.53;;;2.30;;
17832;SDS011;9041;49.718;21.798;2023-07-20T14:40:44;4.38;;;2.70;;
17832;SDS011;9041;49.718;21.798;2023-07-20T14:43:11;4.10;;;2.20;;
17832;SDS011;9041;49.718;21.798;2023-07-20T14:45:40;5.93;;;2.25;;
17832;SDS011;9041;49.718;21.798;2023-07-20T14:48:07;5.13;;;2.70;;
17832;SDS011;9041;49.718;21.798;2023-07-20T14:50:34;7.28;;;2.72;;
17832;SDS011;9041;49.718;21.798;2023-07-20T14:53:00;6.65;;;3.15;;
17832;SDS011;9041;49.718;21.798;2023-07-20T14:55:27;4.07;;;2.40;;
17832;SDS011;9041;49.718;21.798;2023-07-20T14:57:53;2.97;;;2.17;;
17832;SDS011;9041;49.718;21.798;2023-07-20T15:00:21;4.25;;;2.63;;
17832;SDS011;9041;49.718;21.798;2023-07-20T15:02:49;10.95;;;3.15;;
17832;SDS011;9041;49.718;21.798;2023-07-20T15:05:20;3.95;;;2.67;;
17832;SDS011;9041;49.718;21.798;2023-07-20T15:07:46;4.82;;;2.58;;
17832;SDS011;9041;49.718;21.798;2023-07-20T15:10:13;4.30;;;2.63;;
17832;SDS011;9041;49.718;21.798;2023-07-20T15:12:40;5.00;;;2.33;;
17832;SDS011;9041;49.718;21.798;2023-07-20T15:15:08;3.70;;;2.60;;
17832;SDS011;9041;49.718;21.798;2023-07-20T15:17:35;4.57;;;2.30;;
17832;SDS011;9041;49.718;21.798;2023-07-20T15:20:05;3.13;;;2.20;;
17832;SDS011;9041;49.718;21.798;2023-07-20T15:22:33;3.97;;;2.53;;
17832;SDS011;9041;49.718;21.798;2023-07-20T15:25:01;4.45;;;2.70;;
17832;SDS011;9041;49.718;21.798;2023-07-20T15:27:28;6.22;;;2.67;;
17832;SDS011;9041;49.718;21.798;2023-07-20T15:29:55;5.53;;;2.85;;
17832;SDS011;9041;49.718;21.798;2023-07-20T15:32:21;3.90;;;2.83;;
17832;SDS011;9041;49.718;21.798;2023-07-20T15:34:48;6.00;;;2.70;;
17832;SDS011;9041;49.718;21.798;2023-07-20T15:37:16;4.97;;;2.92;;
17832;SDS011;9041;49.718;21.798;2023-07-20T15:39:43;4.80;;;2.70;;
17832;SDS011;9041;49.718;21.798;2023-07-20T15:42:09;3.38;;;2.40;;
17832;SDS011;9041;49.718;21.798;2023-07-20T15:44:36;4.68;;;2.55;;
17832;SDS011;9041;49.718;21.798;2023-07-20T15:47:02;6.25;;;2.40;;
17832;SDS011;9041;49.718;21.798;2023-07-20T15:49:31;2.83;;;2.00;;
17832;SDS011;9041;49.718;21.798;2023-07-20T15:51:58;3.90;;;2.40;;
17832;SDS011;9041;49.718;21.798;2023-07-20T15:54:26;3.85;;;2.20;;
17832;SDS011;9041;49.718;21.798;2023-07-20T15:56:53;3.75;;;2.30;;
17832;SDS011;9041;49.718;21.798;2023-07-20T15:59:20;3.83;;;2.13;;
17832;SDS011;9041;49.718;21.798;2023-07-20T16:01:46;4.20;;;2.65;;
17832;SDS011;9041;49.718;21.798;2023-07-20T16:04:13;3.83;;;2.50;;
17832;SDS011;9041;49.718;21.798;2023-07-20T16:06:40;5.43;;;2.28;;
17832;SDS011;9041;49.718;21.798;2023-07-20T16:09:09;3.92;;;2.20;;
17832;SDS011;9041;49.718;21.798;2023-07-20T16:11:36;4.68;;;2.45;;
17832;SDS011;9041;49.718;21.798;2023-07-20T16:14:05;4.45;;;2.60;;
17832;SDS011;9041;49.718;21.798;2023-07-20T16:16:33;5.10;;;2.35;;
17832;SDS011;9041;49.718;21.798;2023-07-20T16:19:00;7.15;;;2.53;;
17832;SDS011;9041;49.718;21.798;2023-07-20T16:21:27;5.05;;;2.70;;